createdAt,value
2019-02-12T00:03:33.816Z,4.67
2019-02-12T00:08:35.914Z,4.70
2019-02-12T00:13:41.275Z,4.13
2019-02-12T00:18:43.495Z,6.07
2019-02-12T00:23:45.639Z,4.10
2019-02-12T00:28:48.078Z,4.37
2019-02-12T00:33:50.626Z,4.87
2019-02-12T00:38:55.913Z,4.57
2019-02-12T00:43:59.529Z,4.83
2019-02-12T00:49:02.029Z,5.17
2019-02-12T00:54:04.948Z,4.40
2019-02-12T00:59:07.855Z,5.03
2019-02-12T01:04:10.469Z,4.63
2019-02-12T01:09:12.497Z,5.03
2019-02-12T01:14:16.455Z,5.50
2019-02-12T01:19:18.834Z,5.43
2019-02-12T01:24:21.438Z,6.10
2019-02-12T01:29:24.280Z,4.60
2019-02-12T01:34:27.412Z,5.20
2019-02-12T01:39:31.629Z,5.20
2019-02-12T01:44:35.514Z,5.10
2019-02-12T01:49:39.631Z,5.17
2019-02-12T01:54:47.081Z,4.60
2019-02-12T01:59:49.352Z,4.53
2019-02-12T02:04:52.023Z,4.53
2019-02-12T02:09:55.848Z,4.60
2019-02-12T02:14:58.538Z,4.73
2019-02-12T02:20:01.303Z,5.63
2019-02-12T02:25:06.590Z,4.83
2019-02-12T02:30:10.115Z,5.17
2019-02-12T02:35:12.821Z,4.73
2019-02-12T02:40:17.084Z,5.10
2019-02-12T02:45:19.888Z,4.67
2019-02-12T02:50:22.138Z,4.27
2019-02-12T02:55:27.125Z,4.47
2019-02-12T03:00:29.817Z,3.60
2019-02-12T03:05:34.843Z,4.13
2019-02-12T03:10:37.172Z,4.77
2019-02-12T03:15:42.763Z,4.20
2019-02-12T03:20:45.088Z,3.97
2019-02-12T03:25:49.068Z,4.33
2019-02-12T03:30:52.475Z,4.83
2019-02-12T03:35:54.962Z,4.10
2019-02-12T03:40:59.525Z,4.43
2019-02-12T03:46:02.975Z,4.33
2019-02-12T03:51:07.107Z,5.27
2019-02-12T03:56:14.925Z,4.53
2019-02-12T04:01:16.987Z,4.70
2019-02-12T04:06:19.355Z,4.00
2019-02-12T04:11:21.635Z,4.07
2019-02-12T04:16:24.133Z,4.17
2019-02-12T04:21:29.142Z,4.10
2019-02-12T04:26:31.416Z,5.17
2019-02-12T04:31:37.487Z,4.57
2019-02-12T04:36:39.823Z,5.47
2019-02-12T04:41:42.357Z,4.93
2019-02-12T04:46:44.873Z,5.00
2019-02-12T04:51:47.315Z,5.70
2019-02-12T04:56:50.988Z,5.10
2019-02-12T05:01:55.483Z,5.20
2019-02-12T05:07:00.486Z,5.93
2019-02-12T05:12:04.548Z,5.63
2019-02-12T05:17:06.979Z,5.57
2019-02-12T05:22:12.111Z,5.27
2019-02-12T05:27:14.581Z,4.90
2019-02-12T05:32:18.979Z,5.07
2019-02-12T05:37:21.427Z,4.30
2019-02-12T05:42:24.191Z,4.40
2019-02-12T05:47:28.539Z,4.43
2019-02-12T05:52:31.218Z,4.43
2019-02-12T05:57:33.511Z,4.17
2019-02-12T06:02:36.085Z,4.07
2019-02-12T06:07:40.483Z,4.00
2019-02-12T06:12:43.127Z,4.17
2019-02-12T06:17:45.718Z,3.87
2019-02-12T06:22:49.231Z,4.73
2019-02-12T06:27:51.800Z,4.47
2019-02-12T06:33:07.002Z,5.03
2019-02-12T06:38:02.823Z,4.20
2019-02-12T06:43:07.304Z,3.93
2019-02-12T06:48:09.643Z,4.23
2019-02-12T06:53:14.046Z,4.50
2019-02-12T06:58:16.323Z,5.30
2019-02-12T07:03:29.442Z,4.60
2019-02-12T07:08:44.960Z,4.73
2019-02-12T07:14:28.831Z,5.13
2019-02-12T07:19:53.815Z,5.57
2019-02-12T07:25:41.096Z,5.17
2019-02-12T07:31:20.218Z,5.93
2019-02-12T07:37:35.028Z,4.67
2019-02-12T07:42:49.206Z,4.73
2019-02-12T07:48:16.284Z,4.37
2019-02-12T07:54:16.343Z,4.63
2019-02-12T07:59:46.881Z,4.50
2019-02-12T08:05:33.272Z,4.40
2019-02-12T08:11:00.019Z,5.27
2019-02-12T08:16:50.050Z,7.00
2019-02-12T08:22:35.849Z,4.47
2019-02-12T08:28:04.193Z,5.63
2019-02-12T08:33:44.383Z,5.37
2019-02-12T08:39:14.146Z,5.63
2019-02-12T08:44:41.259Z,5.80
2019-02-12T08:49:59.787Z,5.83
2019-02-12T08:55:37.236Z,5.43
2019-02-12T09:01:11.754Z,6.57
2019-02-12T09:06:45.580Z,6.93
2019-02-12T09:12:24.117Z,6.67
2019-02-12T09:17:55.211Z,7.00
2019-02-12T09:23:25.786Z,7.07
2019-02-12T09:28:51.725Z,7.20
2019-02-12T09:34:23.017Z,7.60
2019-02-12T09:40:05.871Z,9.07
2019-02-12T09:45:48.954Z,8.63
2019-02-12T09:51:38.457Z,9.53
2019-02-12T09:57:14.122Z,9.63
2019-02-12T10:02:49.278Z,12.30
2019-02-12T10:08:28.871Z,9.90
2019-02-12T10:14:09.738Z,10.67
2019-02-12T10:19:32.134Z,10.07
2019-02-12T10:25:04.256Z,10.47
2019-02-12T10:30:42.485Z,9.80
2019-02-12T10:35:45.381Z,10.57
2019-02-12T10:40:47.448Z,10.27
2019-02-12T10:45:50.158Z,10.40
2019-02-12T10:50:55.064Z,9.83
2019-02-12T10:55:57.565Z,11.30
2019-02-12T11:01:00.238Z,9.90
2019-02-12T11:06:02.630Z,11.40
2019-02-12T11:11:07.811Z,9.87
2019-02-12T11:16:10.104Z,10.80
2019-02-12T11:21:15.161Z,11.23
2019-02-12T11:26:19.402Z,11.30
2019-02-12T11:31:21.920Z,12.20
2019-02-12T11:36:24.354Z,11.30
2019-02-12T11:41:26.603Z,10.80
2019-02-12T11:46:30.021Z,12.40
2019-02-12T11:51:32.307Z,11.80
2019-02-12T11:56:35.206Z,12.50
2019-02-12T12:01:46.477Z,12.90
2019-02-12T12:06:49.461Z,13.13
2019-02-12T12:11:51.654Z,13.17
2019-02-12T12:16:53.704Z,12.67
2019-02-12T12:21:55.788Z,12.83
2019-02-12T12:26:58.296Z,12.67
2019-02-12T12:32:00.495Z,12.97
2019-02-12T12:37:02.736Z,12.87
2019-02-12T12:42:04.740Z,14.57
2019-02-12T12:47:06.991Z,14.77
2019-02-12T12:52:09.287Z,15.00
2019-02-12T12:57:11.569Z,14.83
2019-02-12T13:02:15.699Z,14.13
2019-02-12T13:07:20.293Z,14.27
2019-02-12T13:12:27.966Z,13.87
2019-02-12T13:17:30.247Z,12.53
2019-02-12T13:22:33.256Z,13.17
2019-02-12T13:27:36.358Z,13.83
2019-02-12T13:32:38.958Z,14.07
2019-02-12T13:37:41.247Z,13.20
2019-02-12T13:42:44.172Z,13.43
2019-02-12T13:47:46.444Z,13.20
2019-02-12T13:52:48.865Z,12.83
2019-02-12T13:57:51.063Z,13.37
2019-02-12T14:02:53.592Z,12.70
2019-02-12T14:07:58.588Z,12.57
2019-02-12T14:13:02.602Z,11.73
2019-02-12T14:18:04.954Z,11.90
2019-02-12T14:23:07.937Z,10.77
2019-02-12T14:28:12.793Z,10.57
2019-02-12T14:33:15.323Z,8.73
2019-02-12T14:38:17.921Z,7.27
2019-02-12T14:43:20.163Z,6.53
2019-02-12T14:48:25.215Z,6.60
2019-02-12T14:53:28.977Z,6.70
2019-02-12T14:58:33.375Z,6.70
2019-02-12T15:03:36.827Z,11.77
2019-02-12T15:08:39.089Z,11.43
2019-02-12T15:13:45.499Z,13.17
2019-02-12T15:18:47.894Z,12.90
2019-02-12T15:23:50.795Z,13.07
2019-02-12T15:28:53.398Z,13.97
2019-02-12T15:33:56.139Z,13.50
2019-02-12T15:38:58.132Z,16.23
2019-02-12T15:44:00.456Z,14.07
2019-02-12T15:49:04.441Z,13.83
2019-02-12T15:54:06.978Z,12.70
2019-02-12T15:59:12.328Z,12.20
2019-02-12T16:04:17.004Z,11.50
2019-02-12T16:09:19.374Z,11.83
2019-02-12T16:14:24.438Z,10.47
2019-02-12T16:19:28.031Z,10.40
2019-02-12T16:24:31.118Z,9.97
2019-02-12T16:29:33.446Z,8.90
2019-02-12T16:34:36.396Z,9.33
2019-02-12T16:39:38.635Z,9.20
2019-02-12T16:44:40.922Z,10.30
2019-02-12T16:49:43.824Z,9.93
2019-02-12T16:54:46.524Z,10.17
2019-02-12T16:59:50.326Z,9.40
2019-02-12T17:04:52.832Z,10.33
2019-02-12T17:09:58.076Z,9.80
2019-02-12T17:15:00.177Z,10.37
2019-02-12T17:20:02.602Z,10.10
2019-02-12T17:25:08.617Z,9.87
2019-02-12T17:30:11.320Z,10.30
2019-02-12T17:35:14.407Z,11.37
2019-02-12T17:40:20.471Z,11.50
2019-02-12T17:45:27.825Z,10.87
2019-02-12T17:50:30.329Z,11.97
2019-02-12T17:55:37.844Z,11.33
2019-02-12T18:00:43.103Z,10.13
2019-02-12T18:05:47.920Z,9.50
2019-02-12T18:10:49.959Z,10.00
2019-02-12T18:15:52.181Z,10.30
2019-02-12T18:20:57.267Z,8.60
2019-02-12T18:26:08.151Z,9.07
2019-02-12T18:31:10.506Z,7.90
2019-02-12T18:36:14.633Z,7.87
2019-02-12T18:41:16.988Z,8.20
2019-02-12T18:46:21.305Z,8.30
2019-02-12T18:51:27.895Z,8.23
2019-02-12T18:56:30.487Z,8.17
2019-02-12T19:01:33.114Z,7.60
2019-02-12T19:06:36.124Z,7.47
2019-02-12T19:11:48.431Z,8.03
2019-02-12T19:16:44.558Z,8.83
2019-02-12T19:21:46.847Z,8.47
2019-02-12T19:26:52.509Z,7.03
2019-02-12T19:31:59.406Z,6.77
2019-02-12T19:37:02.003Z,6.70
2019-02-12T19:42:04.308Z,6.40
2019-02-12T19:47:06.582Z,6.43
2019-02-12T19:52:11.975Z,6.60
2019-02-12T19:57:14.391Z,6.90
2019-02-12T20:02:20.907Z,7.03
2019-02-12T20:07:23.497Z,6.77
2019-02-12T20:12:29.069Z,6.83
2019-02-12T20:17:31.567Z,8.87
2019-02-12T20:22:33.619Z,8.23
2019-02-12T20:27:36.324Z,9.33
2019-02-12T20:32:39.468Z,10.30
2019-02-12T20:37:43.495Z,11.43
2019-02-12T20:42:50.847Z,13.53
2019-02-12T20:47:53.147Z,16.73
2019-02-12T20:52:55.983Z,18.53
2019-02-12T20:57:58.302Z,19.03
2019-02-12T21:03:03.248Z,21.83
2019-02-12T21:08:05.697Z,22.00
2019-02-12T21:13:08.209Z,21.60
2019-02-12T21:18:13.272Z,23.07
2019-02-12T21:23:16.012Z,22.77
2019-02-12T21:28:18.447Z,22.93
2019-02-12T21:33:25.210Z,22.27
2019-02-12T21:38:27.960Z,22.77
2019-02-12T21:43:31.208Z,22.47
2019-02-12T21:48:33.508Z,22.27
2019-02-12T21:53:36.436Z,20.97
2019-02-12T21:58:40.471Z,21.27
2019-02-12T22:03:43.162Z,20.03
2019-02-12T22:08:45.659Z,19.97
2019-02-12T22:13:48.044Z,19.07
2019-02-12T22:18:50.351Z,18.20
2019-02-12T22:23:53.343Z,18.37
2019-02-12T22:28:55.727Z,17.90
2019-02-12T22:33:57.993Z,17.57
2019-02-12T22:39:00.321Z,17.20
2019-02-12T22:44:02.811Z,16.33
2019-02-12T22:49:07.541Z,15.63
2019-02-12T22:54:10.881Z,15.30
2019-02-12T22:59:13.457Z,15.70
2019-02-12T23:04:16.173Z,16.27
2019-02-12T23:09:21.102Z,15.23
2019-02-12T23:14:28.621Z,13.83
2019-02-12T23:19:32.804Z,14.37
2019-02-12T23:24:35.946Z,14.37
2019-02-12T23:29:38.927Z,15.37
2019-02-12T23:34:41.207Z,13.80
2019-02-12T23:39:45.276Z,13.30
2019-02-12T23:44:47.930Z,14.03
2019-02-12T23:49:50.462Z,13.47
2019-02-12T23:54:56.967Z,12.77
